Time;durP1;ratioP1;P1;durP2;ratioP2;P2;SDS_P1;SDS_P2;PMS_P1;PMS_P2;Temp;Humidity;BMP_temperature;BMP_pressure;BME280_temperature;BME280_humidity;BME280_pressure;Samples;Min_cycle;Max_cycle;Signal;HPM_P1;HPM_P2
2021/10/25 00:00:10;;;;;;;10.02;6.57;;;;;;;;;;4926867;29;20410;-85
2021/10/25 00:02:37;;;;;;;7.13;5.90;;;;;;;;;;4925138;29;20854;-86
2021/10/25 00:05:04;;;;;;;8.52;5.85;;;;;;;;;;4927102;29;20409;-85
2021/10/25 00:07:31;;;;;;;8.03;5.97;;;;;;;;;;4927336;29;20421;-86
2021/10/25 00:10:00;;;;;;;8.30;6.00;;;;;;;;;;4925685;29;20425;-85
2021/10/25 00:12:27;;;;;;;8.82;5.18;;;;;;;;;;4927027;29;20429;-86
2021/10/25 00:14:54;;;;;;;10.30;5.75;;;;;;;;;;4927115;29;20438;-85
2021/10/25 00:17:21;;;;;;;6.97;5.05;;;;;;;;;;4927724;29;20435;-85
2021/10/25 00:19:48;;;;;;;5.85;5.13;;;;;;;;;;4928328;29;20415;-85
2021/10/25 00:22:15;;;;;;;6.65;5.25;;;;;;;;;;4926270;29;20438;-85
2021/10/25 00:24:41;;;;;;;7.45;4.82;;;;;;;;;;4928423;29;20410;-85
2021/10/25 00:27:10;;;;;;;7.28;5.25;;;;;;;;;;4927916;29;20433;-86
2021/10/25 00:29:36;;;;;;;5.45;4.72;;;;;;;;;;4928799;29;20420;-86
2021/10/25 00:32:04;;;;;;;7.07;4.90;;;;;;;;;;4929097;29;20708;-86
2021/10/25 00:34:31;;;;;;;6.57;4.53;;;;;;;;;;4945400;29;20460;-86
2021/10/25 00:37:02;;;;;;;6.15;4.70;;;;;;;;;;4946341;29;20413;-85
2021/10/25 00:39:29;;;;;;;5.57;4.68;;;;;;;;;;4936207;29;20668;-84
2021/10/25 00:41:56;;;;;;;6.45;4.50;;;;;;;;;;4942875;29;20423;-86
2021/10/25 00:44:25;;;;;;;5.90;4.88;;;;;;;;;;4942165;29;20427;-86
2021/10/25 00:46:52;;;;;;;5.72;4.53;;;;;;;;;;4949562;29;20450;-85
2021/10/25 00:49:19;;;;;;;6.88;4.65;;;;;;;;;;4949897;29;20413;-85
2021/10/25 00:51:46;;;;;;;6.72;4.82;;;;;;;;;;4950154;29;20395;-85
2021/10/25 00:54:13;;;;;;;5.70;4.35;;;;;;;;;;4949356;29;20450;-85
2021/10/25 00:56:43;;;;;;;5.00;4.47;;;;;;;;;;4946672;29;20413;-85
2021/10/25 00:59:10;;;;;;;4.93;4.10;;;;;;;;;;4928262;29;20463;-85
2021/10/25 01:01:40;;;;;;;5.57;4.22;;;;;;;;;;4929171;29;20406;-85
2021/10/25 01:04:09;;;;;;;4.78;4.13;;;;;;;;;;4928416;29;20896;-85
2021/10/25 01:06:36;;;;;;;6.10;4.25;;;;;;;;;;4928541;29;20436;-85
2021/10/25 01:09:03;;;;;;;4.43;4.00;;;;;;;;;;4928250;29;20409;-85
2021/10/25 01:11:31;;;;;;;6.43;4.25;;;;;;;;;;4927627;29;20422;-86
2021/10/25 01:13:58;;;;;;;6.78;4.03;;;;;;;;;;4928286;29;20418;-86
2021/10/25 01:16:26;;;;;;;6.10;4.13;;;;;;;;;;4927878;29;20786;-86
2021/10/25 01:18:56;;;;;;;6.75;4.13;;;;;;;;;;4928123;29;20413;-85
2021/10/25 01:21:24;;;;;;;4.82;3.67;;;;;;;;;;4927451;29;20423;-85
2021/10/25 01:23:52;;;;;;;4.63;3.60;;;;;;;;;;4928072;29;20459;-85
2021/10/25 01:26:21;;;;;;;6.18;3.90;;;;;;;;;;4927478;29;20458;-85
2021/10/25 01:28:48;;;;;;;5.32;3.80;;;;;;;;;;4925937;29;20843;-85
2021/10/25 01:31:15;;;;;;;4.57;3.53;;;;;;;;;;4926938;29;20794;-86
2021/10/25 01:33:44;;;;;;;5.32;3.55;;;;;;;;;;4927356;29;20426;-86
2021/10/25 01:36:12;;;;;;;4.90;3.67;;;;;;;;;;4927291;29;20523;-85
2021/10/25 01:38:41;;;;;;;4.13;3.60;;;;;;;;;;4927148;29;20414;-86
2021/10/25 01:41:08;;;;;;;4.90;3.60;;;;;;;;;;4927322;29;20875;-86
2021/10/25 01:43:35;;;;;;;6.05;3.97;;;;;;;;;;4923771;29;20414;-85
2021/10/25 01:46:02;;;;;;;4.75;3.60;;;;;;;;;;4926312;29;20501;-86
2021/10/25 01:48:29;;;;;;;5.47;3.40;;;;;;;;;;4927288;29;20410;-85
2021/10/25 01:50:56;;;;;;;4.13;3.50;;;;;;;;;;4926624;29;20406;-85
2021/10/25 01:53:23;;;;;;;4.97;4.05;;;;;;;;;;4927059;29;20420;-86
2021/10/25 01:55:55;;;;;;;4.93;3.60;;;;;;;;;;4927028;29;20442;-86
2021/10/25 01:58:22;;;;;;;4.80;3.42;;;;;;;;;;4926973;29;20949;-86
2021/10/25 02:00:50;;;;;;;5.10;3.45;;;;;;;;;;4925907;29;20417;-85
2021/10/25 02:03:17;;;;;;;5.43;3.50;;;;;;;;;;4923103;29;20464;-86
2021/10/25 02:05:44;;;;;;;5.97;3.95;;;;;;;;;;4912473;29;21209;-85
2021/10/25 02:08:11;;;;;;;5.10;3.53;;;;;;;;;;4926831;29;20419;-85
2021/10/25 02:10:38;;;;;;;5.05;4.00;;;;;;;;;;4927608;29;20437;-85
2021/10/25 02:13:10;;;;;;;4.97;4.18;;;;;;;;;;4927378;29;20417;-85
2021/10/25 02:15:38;;;;;;;6.00;3.88;;;;;;;;;;4926833;29;20429;-85
2021/10/25 02:18:05;;;;;;;4.50;3.70;;;;;;;;;;4927113;29;20414;-85
2021/10/25 02:20:31;;;;;;;7.28;4.43;;;;;;;;;;4927637;29;20419;-85
2021/10/25 02:22:58;;;;;;;5.43;4.22;;;;;;;;;;4927626;29;20771;-85
2021/10/25 02:25:25;;;;;;;6.68;4.60;;;;;;;;;;4927332;29;20415;-85
2021/10/25 02:27:52;;;;;;;5.57;4.40;;;;;;;;;;4926758;29;20433;-85
2021/10/25 02:30:21;;;;;;;5.25;4.40;;;;;;;;;;4926464;29;20468;-85
2021/10/25 02:32:48;;;;;;;5.82;4.50;;;;;;;;;;4928011;29;20462;-85
2021/10/25 02:35:15;;;;;;;6.85;4.60;;;;;;;;;;4931547;29;20465;-85
2021/10/25 02:37:42;;;;;;;5.63;4.47;;;;;;;;;;4931782;29;20737;-85
2021/10/25 02:40:10;;;;;;;5.97;4.25;;;;;;;;;;4941540;29;20414;-85
2021/10/25 02:42:37;;;;;;;7.90;4.65;;;;;;;;;;4951896;29;20517;-85
2021/10/25 02:45:04;;;;;;;6.32;4.50;;;;;;;;;;4931172;29;20433;-85
2021/10/25 02:47:33;;;;;;;5.40;4.53;;;;;;;;;;4932247;29;20449;-85
2021/10/25 02:50:00;;;;;;;5.32;4.50;;;;;;;;;;4930571;29;20410;-85
2021/10/25 02:52:27;;;;;;;6.93;4.07;;;;;;;;;;4930565;29;20414;-85
2021/10/25 02:54:53;;;;;;;5.57;4.45;;;;;;;;;;4930482;29;20440;-85
2021/10/25 02:57:20;;;;;;;4.40;4.00;;;;;;;;;;4930433;29;20425;-85
2021/10/25 02:59:47;;;;;;;6.65;4.63;;;;;;;;;;4929680;29;20418;-85
2021/10/25 03:02:14;;;;;;;7.03;4.70;;;;;;;;;;4930072;29;20469;-85
2021/10/25 03:04:42;;;;;;;7.57;4.38;;;;;;;;;;4930541;29;20426;-85
2021/10/25 03:07:09;;;;;;;5.80;4.18;;;;;;;;;;4930100;29;20466;-85
2021/10/25 03:09:36;;;;;;;5.93;4.38;;;;;;;;;;4930272;29;20895;-85
2021/10/25 03:12:03;;;;;;;6.33;4.30;;;;;;;;;;4929992;29;20431;-85
2021/10/25 03:14:30;;;;;;;6.15;4.18;;;;;;;;;;4929893;29;20447;-85
2021/10/25 03:16:57;;;;;;;6.68;4.65;;;;;;;;;;4929553;29;20425;-85
2021/10/25 03:19:25;;;;;;;6.28;4.60;;;;;;;;;;4930028;29;20419;-85
2021/10/25 03:21:53;;;;;;;7.55;4.68;;;;;;;;;;4930269;29;20461;-85
2021/10/25 03:24:21;;;;;;;6.53;4.50;;;;;;;;;;4929582;29;20450;-85
2021/10/25 03:26:47;;;;;;;5.70;4.43;;;;;;;;;;4929830;29;20418;-85
2021/10/25 03:29:15;;;;;;;6.13;4.45;;;;;;;;;;4929431;29;20420;-85
2021/10/25 03:31:42;;;;;;;5.55;4.00;;;;;;;;;;4929167;29;20470;-86
2021/10/25 03:34:09;;;;;;;6.95;4.40;;;;;;;;;;4929840;29;20419;-85
2021/10/25 03:36:38;;;;;;;6.80;4.60;;;;;;;;;;4929845;29;20787;-85
2021/10/25 03:39:07;;;;;;;5.50;4.20;;;;;;;;;;4929474;29;20468;-85
2021/10/25 03:41:36;;;;;;;5.45;4.25;;;;;;;;;;4929575;29;20417;-85
2021/10/25 03:44:08;;;;;;;6.25;4.20;;;;;;;;;;4928972;29;21032;-85
2021/10/25 03:46:39;;;;;;;4.53;4.07;;;;;;;;;;4928734;29;20470;-86
2021/10/25 03:49:10;;;;;;;5.20;3.72;;;;;;;;;;4929237;29;20475;-85
2021/10/25 03:51:40;;;;;;;5.33;3.70;;;;;;;;;;4929695;29;20538;-85
2021/10/25 03:54:21;;;;;;;7.50;3.80;;;;;;;;;;4928967;29;20425;-85
2021/10/25 03:57:11;;;;;;;5.45;3.95;;;;;;;;;;4929113;29;21015;-85
2021/10/25 03:59:50;;;;;;;8.05;5.25;;;;;;;;;;4916988;29;20465;-85
2021/10/25 04:02:43;;;;;;;7.05;4.50;;;;;;;;;;4924085;29;20500;-85
2021/10/25 04:13:58;;;;;;;7.63;5.30;;;;;;;;;;4866722;29;20874;-85
2021/10/25 04:27:43;;;;;;;9.45;6.10;;;;;;;;;;4924492;29;20470;-85
2021/10/25 04:30:10;;;;;;;8.57;5.50;;;;;;;;;;4925435;29;20587;-85
2021/10/25 04:32:37;;;;;;;6.10;5.38;;;;;;;;;;4927881;29;20454;-85
2021/10/25 04:35:06;;;;;;;7.07;5.35;;;;;;;;;;4928084;29;20927;-86
2021/10/25 04:37:33;;;;;;;7.07;5.40;;;;;;;;;;4927740;29;20426;-85
2021/10/25 04:39:59;;;;;;;7.47;6.05;;;;;;;;;;4927111;29;20422;-85
2021/10/25 04:42:26;;;;;;;6.65;5.43;;;;;;;;;;4927852;29;20418;-85
2021/10/25 04:44:55;;;;;;;6.10;5.50;;;;;;;;;;4927648;29;20413;-85
2021/10/25 04:47:21;;;;;;;5.70;5.10;;;;;;;;;;4927541;29;20458;-85
2021/10/25 04:49:48;;;;;;;7.10;5.23;;;;;;;;;;4927861;29;20418;-85
2021/10/25 04:52:15;;;;;;;7.60;5.03;;;;;;;;;;4926205;29;20422;-85
2021/10/25 04:54:42;;;;;;;8.57;5.38;;;;;;;;;;4926204;29;20679;-86
2021/10/25 04:57:09;;;;;;;7.28;5.38;;;;;;;;;;4925441;29;20437;-85
2021/10/25 04:59:36;;;;;;;6.73;5.47;;;;;;;;;;4927045;29;20410;-88
2021/10/25 05:02:05;;;;;;;7.10;5.85;;;;;;;;;;4926302;29;20441;-86
2021/10/25 05:04:32;;;;;;;8.05;5.55;;;;;;;;;;4928149;29;20425;-86
2021/10/25 05:06:59;;;;;;;6.13;5.10;;;;;;;;;;4921976;29;20417;-85
2021/10/25 05:09:26;;;;;;;6.43;5.03;;;;;;;;;;4925651;29;20419;-85
2021/10/25 05:11:53;;;;;;;8.15;5.47;;;;;;;;;;4927653;29;20415;-85
2021/10/25 05:14:19;;;;;;;7.17;5.97;;;;;;;;;;4927156;29;20480;-85
2021/10/25 05:16:46;;;;;;;8.25;6.03;;;;;;;;;;4925897;29;20439;-85
2021/10/25 05:19:15;;;;;;;10.15;5.97;;;;;;;;;;4926159;29;20418;-85
2021/10/25 05:21:42;;;;;;;8.82;6.57;;;;;;;;;;4926946;29;20425;-86
2021/10/25 05:24:09;;;;;;;8.35;6.72;;;;;;;;;;4929530;29;20441;-85
2021/10/25 05:26:35;;;;;;;6.78;6.07;;;;;;;;;;4922290;29;20415;-85
2021/10/25 05:29:03;;;;;;;7.03;6.32;;;;;;;;;;4918047;29;20818;-85
2021/10/25 05:31:30;;;;;;;9.38;6.53;;;;;;;;;;4922852;29;20425;-85
2021/10/25 05:33:57;;;;;;;9.60;7.10;;;;;;;;;;4924886;29;20438;-85
2021/10/25 05:36:26;;;;;;;8.68;6.72;;;;;;;;;;4926866;29;20485;-85
2021/10/25 05:38:53;;;;;;;10.23;7.20;;;;;;;;;;4927105;29;20477;-86
2021/10/25 05:41:19;;;;;;;8.38;6.60;;;;;;;;;;4927184;29;20406;-85
2021/10/25 05:43:46;;;;;;;9.32;7.10;;;;;;;;;;4925456;29;20652;-87
2021/10/25 05:46:13;;;;;;;8.93;7.30;;;;;;;;;;4927830;29;20428;-88
2021/10/25 05:48:40;;;;;;;9.30;7.22;;;;;;;;;;4940160;28;20399;-85
2021/10/25 05:51:07;;;;;;;11.15;7.60;;;;;;;;;;4945806;28;20417;-85
2021/10/25 05:53:36;;;;;;;11.95;7.10;;;;;;;;;;4922635;29;20476;-86
2021/10/25 05:56:02;;;;;;;9.43;7.03;;;;;;;;;;4922505;29;20447;-85
2021/10/25 05:58:30;;;;;;;10.15;7.32;;;;;;;;;;4925520;29;20422;-85
2021/10/25 06:00:59;;;;;;;13.15;8.05;;;;;;;;;;4923358;29;20459;-85
2021/10/25 06:03:29;;;;;;;8.95;7.30;;;;;;;;;;4926454;29;20453;-86
2021/10/25 06:05:55;;;;;;;9.13;6.90;;;;;;;;;;4928619;29;20563;-86
2021/10/25 06:08:23;;;;;;;9.13;6.78;;;;;;;;;;4928451;29;20493;-86
2021/10/25 06:10:51;;;;;;;11.53;7.90;;;;;;;;;;4926929;29;20421;-86
2021/10/25 06:13:24;;;;;;;9.93;7.32;;;;;;;;;;4926378;29;20414;-86
2021/10/25 06:15:57;;;;;;;10.20;7.13;;;;;;;;;;4925690;29;20537;-86
2021/10/25 06:18:25;;;;;;;9.83;7.00;;;;;;;;;;4927748;29;20467;-85
2021/10/25 06:20:52;;;;;;;10.47;6.73;;;;;;;;;;4925977;29;21045;-86
2021/10/25 06:23:19;;;;;;;10.50;7.00;;;;;;;;;;4926668;29;20414;-85
2021/10/25 06:25:51;;;;;;;12.27;6.55;;;;;;;;;;4926833;29;20462;-86
2021/10/25 06:28:20;;;;;;;10.30;6.10;;;;;;;;;;4921387;29;20943;-86
2021/10/25 06:30:54;;;;;;;11.23;7.30;;;;;;;;;;4926060;29;20430;-86
2021/10/25 06:33:22;;;;;;;9.65;6.90;;;;;;;;;;4926890;29;20418;-86
2021/10/25 06:35:57;;;;;;;10.23;7.10;;;;;;;;;;4927201;29;20434;-86
2021/10/25 06:38:30;;;;;;;8.93;6.63;;;;;;;;;;4928947;29;20471;-87
2021/10/25 06:40:57;;;;;;;7.38;6.25;;;;;;;;;;4926355;29;20457;-86
2021/10/25 06:43:25;;;;;;;9.68;6.50;;;;;;;;;;4927159;29;20454;-86
2021/10/25 06:45:54;;;;;;;12.55;6.68;;;;;;;;;;4925532;29;20466;-86
2021/10/25 06:48:21;;;;;;;10.10;6.75;;;;;;;;;;4926910;29;20466;-86
2021/10/25 06:50:48;;;;;;;9.70;6.65;;;;;;;;;;4929924;29;20422;-86
2021/10/25 06:53:16;;;;;;;10.75;6.93;;;;;;;;;;4924944;29;21192;-86
2021/10/25 06:55:44;;;;;;;9.63;6.93;;;;;;;;;;4928397;29;20564;-86
2021/10/25 06:58:12;;;;;;;10.95;7.05;;;;;;;;;;4928935;29;20438;-86
2021/10/25 07:00:40;;;;;;;8.82;7.10;;;;;;;;;;4926106;29;20461;-86
2021/10/25 07:03:07;;;;;;;10.27;7.25;;;;;;;;;;4926734;29;20830;-86
2021/10/25 07:05:35;;;;;;;10.98;7.00;;;;;;;;;;4922867;29;21255;-86
2021/10/25 07:08:03;;;;;;;10.57;7.22;;;;;;;;;;4926518;29;20418;-86
2021/10/25 07:10:30;;;;;;;11.32;7.20;;;;;;;;;;4926402;29;20413;-87
2021/10/25 07:12:58;;;;;;;9.43;7.00;;;;;;;;;;4926629;29;20421;-86
2021/10/25 07:15:25;;;;;;;9.77;6.95;;;;;;;;;;4925864;29;20523;-86
2021/10/25 07:17:58;;;;;;;8.33;6.93;;;;;;;;;;4932620;29;20531;-86
2021/10/25 07:20:41;;;;;;;7.80;6.90;;;;;;;;;;4929146;29;20556;-86
2021/10/25 08:07:13;;;;;;;14.15;8.52;;;;;;;;;;4932805;29;20481;-86
2021/10/25 08:09:52;;;;;;;11.15;7.47;;;;;;;;;;4926237;29;20509;-86
2021/10/25 08:12:23;;;;;;;10.50;7.17;;;;;;;;;;4929869;29;20876;-86
2021/10/25 08:14:52;;;;;;;12.30;7.28;;;;;;;;;;4928671;29;20493;-86
2021/10/25 08:17:22;;;;;;;11.23;7.00;;;;;;;;;;4930041;29;20437;-86
2021/10/25 08:19:49;;;;;;;9.53;7.03;;;;;;;;;;4929312;29;20432;-86
2021/10/25 08:22:18;;;;;;;7.53;6.45;;;;;;;;;;4930601;29;20413;-86
2021/10/25 08:24:49;;;;;;;9.32;6.88;;;;;;;;;;4932623;29;20422;-87
2021/10/25 08:27:19;;;;;;;8.73;6.43;;;;;;;;;;4950601;29;20406;-86
2021/10/25 08:29:47;;;;;;;8.35;6.65;;;;;;;;;;4953080;29;20437;-86
2021/10/25 08:35:22;;;;;;;9.70;6.80;;;;;;;;;;4943120;29;20416;-84
2021/10/25 08:40:38;;;;;;;9.50;6.32;;;;;;;;;;4951863;29;20420;-84
2021/10/25 08:43:05;;;;;;;8.00;6.10;;;;;;;;;;4951873;29;20473;-84
2021/10/25 08:45:33;;;;;;;7.20;6.05;;;;;;;;;;4951669;29;20426;-83
2021/10/25 08:48:01;;;;;;;7.70;6.57;;;;;;;;;;4944620;29;20486;-83
2021/10/25 08:50:32;;;;;;;8.30;6.20;;;;;;;;;;4930093;29;20414;-84
2021/10/25 08:53:02;;;;;;;6.82;5.60;;;;;;;;;;4931295;29;20421;-84
2021/10/25 08:55:29;;;;;;;7.35;5.68;;;;;;;;;;4930107;29;20414;-85
2021/10/25 08:57:56;;;;;;;8.15;5.80;;;;;;;;;;4931146;29;20413;-85
2021/10/25 09:00:36;;;;;;;8.17;5.47;;;;;;;;;;4929808;29;20425;-84
2021/10/25 09:03:04;;;;;;;6.28;5.10;;;;;;;;;;4928704;29;20426;-85
2021/10/25 09:05:33;;;;;;;5.65;4.90;;;;;;;;;;4928441;29;20418;-85
2021/10/25 09:08:04;;;;;;;5.63;4.60;;;;;;;;;;4931645;29;20917;-83
2021/10/25 09:10:33;;;;;;;6.75;4.32;;;;;;;;;;4931449;29;20418;-86
2021/10/25 09:13:02;;;;;;;5.90;4.45;;;;;;;;;;4936634;29;20418;-85
2021/10/25 09:15:31;;;;;;;5.22;4.00;;;;;;;;;;4943350;29;20437;-85
2021/10/25 09:17:59;;;;;;;5.60;4.30;;;;;;;;;;4938111;29;20425;-85
2021/10/25 09:20:26;;;;;;;5.63;4.40;;;;;;;;;;4928224;29;20796;-84
2021/10/25 09:23:16;;;;;;;5.57;4.88;;;;;;;;;;4927855;29;20779;-85
2021/10/25 09:25:43;;;;;;;7.05;4.80;;;;;;;;;;4923565;29;20420;-84
2021/10/25 09:28:17;;;;;;;8.82;5.40;;;;;;;;;;4931183;29;20418;-85
2021/10/25 09:30:49;;;;;;;8.60;4.97;;;;;;;;;;4923147;29;20433;-84
2021/10/25 09:33:20;;;;;;;6.75;5.10;;;;;;;;;;4925526;29;20442;-84
2021/10/25 09:35:53;;;;;;;7.40;3.97;;;;;;;;;;4925521;29;20426;-84
2021/10/25 09:38:27;;;;;;;4.70;3.25;;;;;;;;;;4927815;29;20887;-85
2021/10/25 09:46:35;;;;;;;2.77;1.80;;;;;;;;;;4924552;29;20826;-85
2021/10/25 09:49:07;;;;;;;3.50;1.85;;;;;;;;;;4926992;29;20424;-85
2021/10/25 09:51:34;;;;;;;4.38;2.00;;;;;;;;;;4927457;29;20410;-85
2021/10/25 09:54:03;;;;;;;3.20;1.73;;;;;;;;;;4927706;29;20412;-86
2021/10/25 09:56:33;;;;;;;3.88;1.92;;;;;;;;;;4928238;29;20425;-85
2021/10/25 09:59:10;;;;;;;3.72;1.90;;;;;;;;;;4928617;29;20445;-85
2021/10/25 10:01:40;;;;;;;2.88;1.80;;;;;;;;;;4927173;29;20895;-85
2021/10/25 10:04:08;;;;;;;2.95;1.80;;;;;;;;;;4924179;29;20424;-85
2021/10/25 10:06:36;;;;;;;3.08;1.80;;;;;;;;;;4928704;29;20929;-85
2021/10/25 10:09:05;;;;;;;1.70;1.40;;;;;;;;;;4927730;29;20426;-85
2021/10/25 10:11:33;;;;;;;1.77;1.58;;;;;;;;;;4927681;29;20417;-85
2021/10/25 10:14:02;;;;;;;4.22;1.60;;;;;;;;;;4923812;29;20428;-85
2021/10/25 10:16:30;;;;;;;2.55;1.70;;;;;;;;;;4926260;29;20422;-85
2021/10/25 10:19:01;;;;;;;2.10;1.30;;;;;;;;;;4932866;29;20406;-85
2021/10/25 10:21:29;;;;;;;3.42;1.80;;;;;;;;;;4926703;29;20406;-85
2021/10/25 10:24:03;;;;;;;3.13;1.60;;;;;;;;;;4927662;29;20764;-85
2021/10/25 10:26:33;;;;;;;3.30;1.70;;;;;;;;;;4927118;29;20543;-85
2021/10/25 10:29:09;;;;;;;3.42;1.90;;;;;;;;;;4928557;29;20445;-85
2021/10/25 10:31:36;;;;;;;3.58;1.98;;;;;;;;;;4926344;29;20417;-85
2021/10/25 10:34:12;;;;;;;4.43;1.93;;;;;;;;;;4926817;29;20811;-85
2021/10/25 10:36:50;;;;;;;3.08;2.03;;;;;;;;;;4926358;29;20430;-85
2021/10/25 10:39:18;;;;;;;3.65;2.25;;;;;;;;;;4924672;29;20421;-85
2021/10/25 10:41:54;;;;;;;4.28;2.35;;;;;;;;;;4926985;29;20410;-85
2021/10/25 10:44:26;;;;;;;4.43;2.30;;;;;;;;;;4924485;29;20806;-86
2021/10/25 10:46:56;;;;;;;4.93;2.38;;;;;;;;;;4928652;29;20416;-85
2021/10/25 10:49:26;;;;;;;6.30;2.70;;;;;;;;;;4926701;29;20840;-85
2021/10/25 10:52:27;;;;;;;5.93;2.75;;;;;;;;;;4926867;29;20418;-86
2021/10/25 10:55:03;;;;;;;7.10;2.72;;;;;;;;;;4886676;29;20453;-85
2021/10/25 11:00:26;;;;;;;4.40;2.50;;;;;;;;;;4925304;29;20422;-85
2021/10/25 11:02:54;;;;;;;4.18;2.50;;;;;;;;;;4928512;29;20444;-85
2021/10/25 11:05:30;;;;;;;5.20;2.60;;;;;;;;;;4930329;29;20418;-85
2021/10/25 11:08:01;;;;;;;5.15;2.63;;;;;;;;;;4918395;29;20831;-88
2021/10/25 11:10:31;;;;;;;5.00;2.67;;;;;;;;;;4927116;29;20499;-88
2021/10/25 11:13:05;;;;;;;5.15;2.28;;;;;;;;;;4925274;29;20922;-88
2021/10/25 11:15:37;;;;;;;4.82;2.72;;;;;;;;;;4928001;29;20436;-85
2021/10/25 11:18:05;;;;;;;3.27;2.20;;;;;;;;;;4926895;29;20521;-85
2021/10/25 11:20:33;;;;;;;3.37;2.47;;;;;;;;;;4926605;29;20397;-85
2021/10/25 11:23:04;;;;;;;7.28;2.92;;;;;;;;;;4922797;29;20408;-86
2021/10/25 11:25:39;;;;;;;7.93;3.50;;;;;;;;;;4931794;28;20433;-86
2021/10/25 11:28:22;;;;;;;7.15;4.30;;;;;;;;;;4932224;29;20413;-86
2021/10/25 11:30:49;;;;;;;7.82;5.88;;;;;;;;;;4926491;29;20416;-85
2021/10/25 11:33:19;;;;;;;8.13;3.78;;;;;;;;;;4929641;29;20448;-86
2021/10/25 11:35:48;;;;;;;22.52;16.17;;;;;;;;;;4930742;29;20440;-85
2021/10/25 11:38:16;;;;;;;45.38;30.00;;;;;;;;;;4929890;29;20842;-86
2021/10/25 11:40:43;;;;;;;41.78;25.75;;;;;;;;;;4930549;29;20421;-86
2021/10/25 11:43:10;;;;;;;9.43;4.03;;;;;;;;;;4933069;29;20412;-85
2021/10/25 11:45:38;;;;;;;6.28;3.10;;;;;;;;;;4931404;29;20430;-86
2021/10/25 11:48:06;;;;;;;6.05;2.78;;;;;;;;;;4929252;29;20414;-86
2021/10/25 11:50:33;;;;;;;6.00;2.70;;;;;;;;;;4925170;29;20429;-86
2021/10/25 11:53:04;;;;;;;5.25;2.90;;;;;;;;;;4928045;29;20406;-86
2021/10/25 11:55:33;;;;;;;5.10;2.78;;;;;;;;;;4925911;29;20425;-85
2021/10/25 11:58:03;;;;;;;4.80;3.33;;;;;;;;;;4927900;29;20482;-86
2021/10/25 12:00:31;;;;;;;3.65;2.53;;;;;;;;;;4921068;29;20960;-85
2021/10/25 12:03:06;;;;;;;4.97;2.88;;;;;;;;;;4927320;29;20433;-86
2021/10/25 12:05:33;;;;;;;5.20;2.60;;;;;;;;;;4926336;29;20429;-86
2021/10/25 12:08:00;;;;;;;9.85;2.92;;;;;;;;;;4926432;29;20410;-86
2021/10/25 12:10:28;;;;;;;7.97;3.03;;;;;;;;;;4925415;29;20418;-86
2021/10/25 12:12:58;;;;;;;5.70;2.95;;;;;;;;;;4924207;29;20421;-86
2021/10/25 12:15:26;;;;;;;7.07;3.28;;;;;;;;;;4930800;29;20426;-86
2021/10/25 12:17:57;;;;;;;5.05;2.80;;;;;;;;;;4928010;29;20433;-86
2021/10/25 12:20:26;;;;;;;4.40;2.90;;;;;;;;;;4927547;29;20415;-86
2021/10/25 12:23:03;;;;;;;3.00;2.60;;;;;;;;;;4925583;29;20426;-86
2021/10/25 12:25:33;;;;;;;3.17;2.50;;;;;;;;;;4925892;29;20429;-86
2021/10/25 12:28:01;;;;;;;6.03;2.72;;;;;;;;;;4929742;29;20433;-85
2021/10/25 12:30:29;;;;;;;6.18;3.03;;;;;;;;;;4918711;29;20427;-86
2021/10/25 12:32:58;;;;;;;5.93;2.80;;;;;;;;;;4921147;29;20420;-85
2021/10/25 12:35:38;;;;;;;6.22;3.22;;;;;;;;;;4918048;29;20411;-86
2021/10/25 12:38:09;;;;;;;6.93;3.10;;;;;;;;;;4923660;29;20482;-85
2021/10/25 12:40:41;;;;;;;5.17;2.80;;;;;;;;;;4932743;29;20805;-86
2021/10/25 12:43:09;;;;;;;8.38;3.30;;;;;;;;;;4927488;29;20421;-86
2021/10/25 12:45:41;;;;;;;4.60;2.70;;;;;;;;;;4929540;29;20459;-85
2021/10/25 12:48:10;;;;;;;5.50;2.70;;;;;;;;;;4921317;29;20415;-85
2021/10/25 12:50:41;;;;;;;5.57;2.80;;;;;;;;;;4927312;29;20473;-86
2021/10/25 12:53:09;;;;;;;3.88;2.65;;;;;;;;;;4926869;29;20422;-85
2021/10/25 12:55:38;;;;;;;4.57;2.63;;;;;;;;;;4924138;29;20804;-85
2021/10/25 12:58:08;;;;;;;6.15;2.53;;;;;;;;;;4921199;29;20494;-86
2021/10/25 13:00:37;;;;;;;6.15;2.33;;;;;;;;;;4918370;29;20410;-85
2021/10/25 13:03:09;;;;;;;5.82;2.20;;;;;;;;;;4919475;29;20411;-85
2021/10/25 13:05:39;;;;;;;5.28;2.50;;;;;;;;;;4915918;29;20429;-85
2021/10/25 13:08:08;;;;;;;3.67;2.33;;;;;;;;;;4926617;29;20895;-85
2021/10/25 13:10:37;;;;;;;3.67;2.30;;;;;;;;;;4927080;29;20417;-86
2021/10/25 13:13:06;;;;;;;4.25;2.47;;;;;;;;;;4914963;29;20423;-85
2021/10/25 13:15:33;;;;;;;6.43;2.50;;;;;;;;;;4918582;29;20424;-85
2021/10/25 13:18:01;;;;;;;4.55;2.55;;;;;;;;;;4922020;29;20434;-86
2021/10/25 13:20:31;;;;;;;4.88;2.80;;;;;;;;;;4920237;29;20423;-85
2021/10/25 13:23:02;;;;;;;6.40;2.60;;;;;;;;;;4917385;29;20494;-85
2021/10/25 13:25:30;;;;;;;5.75;2.58;;;;;;;;;;4922919;29;20416;-85
2021/10/25 13:27:59;;;;;;;6.32;2.40;;;;;;;;;;4938959;29;20402;-86
2021/10/25 13:30:28;;;;;;;5.90;2.47;;;;;;;;;;4927441;29;20426;-85
2021/10/25 13:32:55;;;;;;;4.28;2.35;;;;;;;;;;4918530;29;20422;-85
2021/10/25 13:35:23;;;;;;;5.77;2.80;;;;;;;;;;4925775;29;20409;-84
2021/10/25 13:37:54;;;;;;;8.15;2.28;;;;;;;;;;4930041;29;20430;-86
2021/10/25 13:40:27;;;;;;;4.45;2.28;;;;;;;;;;4931088;29;20413;-85
2021/10/25 13:42:54;;;;;;;4.35;2.30;;;;;;;;;;4924640;29;20450;-85
2021/10/25 13:45:21;;;;;;;4.20;2.00;;;;;;;;;;4926272;29;20422;-86
2021/10/25 13:47:49;;;;;;;6.25;2.45;;;;;;;;;;4926814;29;20409;-85
2021/10/25 13:50:16;;;;;;;3.72;2.20;;;;;;;;;;4923324;29;20432;-85
2021/10/25 13:52:43;;;;;;;7.17;2.40;;;;;;;;;;4925211;29;20508;-86
2021/10/25 13:55:11;;;;;;;2.67;2.10;;;;;;;;;;4924562;29;20457;-85
2021/10/25 13:57:40;;;;;;;6.80;2.28;;;;;;;;;;4927919;29;20426;-85
2021/10/25 14:00:10;;;;;;;5.90;2.20;;;;;;;;;;4928386;29;20484;-85
2021/10/25 14:02:37;;;;;;;5.00;2.15;;;;;;;;;;4926517;29;20414;-86
2021/10/25 14:05:04;;;;;;;6.15;2.53;;;;;;;;;;4928296;29;21481;-85
2021/10/25 14:07:33;;;;;;;4.50;2.20;;;;;;;;;;4927353;29;20444;-85
2021/10/25 14:10:04;;;;;;;2.67;2.10;;;;;;;;;;4928533;29;20783;-85
2021/10/25 14:12:31;;;;;;;3.80;2.40;;;;;;;;;;4926762;29;20464;-85
2021/10/25 14:15:07;;;;;;;3.78;2.40;;;;;;;;;;4926630;29;20421;-85
2021/10/25 14:17:35;;;;;;;3.80;2.50;;;;;;;;;;4924707;29;21292;-85
2021/10/25 14:20:02;;;;;;;4.13;2.40;;;;;;;;;;4927814;29;20440;-85
2021/10/25 14:22:29;;;;;;;5.77;2.60;;;;;;;;;;4926530;29;21069;-86
2021/10/25 14:24:56;;;;;;;3.90;2.47;;;;;;;;;;4926165;29;20484;-86
2021/10/25 14:27:23;;;;;;;4.22;2.40;;;;;;;;;;4924651;29;20417;-85
2021/10/25 14:29:49;;;;;;;6.32;2.20;;;;;;;;;;4928905;29;21200;-85
2021/10/25 14:32:18;;;;;;;5.97;2.50;;;;;;;;;;4928818;29;20414;-85
2021/10/25 14:34:45;;;;;;;4.00;2.40;;;;;;;;;;4930410;29;20413;-85
2021/10/25 14:37:12;;;;;;;6.07;2.65;;;;;;;;;;4930310;29;21001;-84
2021/10/25 14:39:42;;;;;;;4.50;2.78;;;;;;;;;;4931627;29;20468;-83
2021/10/25 14:42:17;;;;;;;5.13;2.55;;;;;;;;;;4931042;29;20414;-84
2021/10/25 14:44:50;;;;;;;5.28;2.80;;;;;;;;;;4929853;29;20449;-83
2021/10/25 14:47:26;;;;;;;5.18;2.88;;;;;;;;;;4930379;29;20842;-84
2021/10/25 14:55:36;;;;;;;15.80;3.35;;;;;;;;;;4903747;29;20401;-83
2021/10/25 14:58:04;;;;;;;6.22;3.08;;;;;;;;;;4923942;29;20500;-81
2021/10/25 15:00:31;;;;;;;4.43;3.07;;;;;;;;;;4928062;29;20422;-80
2021/10/25 15:02:59;;;;;;;5.00;2.65;;;;;;;;;;4928376;29;20421;-85
2021/10/25 15:05:26;;;;;;;5.32;3.22;;;;;;;;;;4927616;29;20417;-85
2021/10/25 15:07:53;;;;;;;4.68;2.90;;;;;;;;;;4926578;29;20425;-85
2021/10/25 15:10:20;;;;;;;5.22;3.20;;;;;;;;;;4929181;29;20513;-85
2021/10/25 15:12:47;;;;;;;6.43;3.20;;;;;;;;;;4929015;29;20429;-85
2021/10/25 15:15:15;;;;;;;5.75;3.33;;;;;;;;;;4928022;29;20422;-83
2021/10/25 15:17:42;;;;;;;5.60;3.30;;;;;;;;;;4927872;29;20421;-83
2021/10/25 15:20:12;;;;;;;6.63;3.80;;;;;;;;;;4929157;29;20497;-80
2021/10/25 15:22:39;;;;;;;6.20;3.83;;;;;;;;;;4924486;29;20953;-82
2021/10/25 15:25:09;;;;;;;5.40;3.53;;;;;;;;;;4927763;29;20531;-81
2021/10/25 15:27:39;;;;;;;6.40;3.95;;;;;;;;;;4927189;29;20432;-82
2021/10/25 15:30:08;;;;;;;6.93;3.70;;;;;;;;;;4927700;29;20437;-82
2021/10/25 15:32:35;;;;;;;6.53;4.10;;;;;;;;;;4927463;29;20493;-82
2021/10/25 15:35:03;;;;;;;5.80;5.05;;;;;;;;;;4923859;29;20429;-82
2021/10/25 15:37:32;;;;;;;8.25;4.22;;;;;;;;;;4924149;29;20418;-82
2021/10/25 15:39:59;;;;;;;6.50;3.67;;;;;;;;;;4928553;29;20899;-82
2021/10/25 15:42:28;;;;;;;6.22;3.70;;;;;;;;;;4926481;29;20970;-82
2021/10/25 15:44:57;;;;;;;8.82;3.70;;;;;;;;;;4926384;29;20417;-81
2021/10/25 15:47:25;;;;;;;8.20;3.88;;;;;;;;;;4927183;29;20794;-83
2021/10/25 15:49:53;;;;;;;7.72;3.63;;;;;;;;;;4929237;29;20429;-82
2021/10/25 15:52:21;;;;;;;8.52;4.85;;;;;;;;;;4925592;29;20980;-82
2021/10/25 15:54:50;;;;;;;9.80;4.40;;;;;;;;;;4924901;29;20422;-83
2021/10/25 15:57:20;;;;;;;10.93;5.03;;;;;;;;;;4922675;29;20501;-82
2021/10/25 15:59:46;;;;;;;13.20;7.70;;;;;;;;;;4924175;29;20444;-82
2021/10/25 16:02:14;;;;;;;17.08;9.88;;;;;;;;;;4926994;29;21168;-82
2021/10/25 16:04:42;;;;;;;16.70;10.43;;;;;;;;;;4928100;29;20413;-82
2021/10/25 16:07:14;;;;;;;15.93;9.80;;;;;;;;;;4925768;29;20406;-79
2021/10/25 16:09:41;;;;;;;15.82;8.93;;;;;;;;;;4927197;29;20430;-81
2021/10/25 16:12:15;;;;;;;13.70;9.05;;;;;;;;;;4926622;29;20772;-82
2021/10/25 16:14:42;;;;;;;16.17;8.75;;;;;;;;;;4929340;29;20417;-82